Main page
METAR-TAF:

METAR-TAF

Airports :

Lanseria International Airport

Lanseria, South Africa

latitude: 25-56S, longitude: 027-56E, elevation: 1377 m

Current weather observation

The report was made 23 minutes ago, at 17:00 UTC
Calm wind
Temperature 12°C
Humidity 40%
Pressure 1032 hPa
Visibility 10 km or more
no clouds below 1500 m and no cumulonimbus

METAR: FALA 191700Z 00000KT CAVOK 12/M01 Q1032 NOSIG

Time: 19:23 (17:23 UTC)

Forecast

The report was made 7 hours and 23 minutes ago, at 10:00 UTC
Forecast valid from 19 at 12 UTC to 20 at 12 UTC
Wind 6 kt from the North/Northeast
Visibility 10 km or more
no clouds below 1500 m and no cumulonimbus
Becoming
from 19 at 16 UTC to 19 at 18 UTC
Wind 3 kt from variable directions

TAF: FALA 191000Z 1912/2012 02006KT CAVOK BECMG 1916/1918 VRB03KT TX17/2012Z TN02/2004Z

Weather observations and forecasts of more than 4000 airports (METAR and TAF reports).

The available stations are represented by yellow and red dots on the map.

Hover mouse over dot to see the name of the station.

Then click to see weather observations and forecasts.

To change the map : click on the green buttons with a black cross to zoom in, on the green button with a dash to zoom out, or on the green arrows for adjacent maps.


METAR-TAF: